sensor_id;sensor_type;location;lat;lon;timestamp;P1;durP1;ratioP1;P2;durP2;ratioP2
68633;SDS011;55625;47.072;22.192;2022-12-18T00:01:05;14.23;;;7.40;;
68633;SDS011;55625;47.072;22.192;2022-12-18T00:03:41;10.77;;;5.85;;
68633;SDS011;55625;47.072;22.192;2022-12-18T00:06:07;8.87;;;5.03;;
68633;SDS011;55625;47.072;22.192;2022-12-18T00:08:34;11.77;;;8.25;;
68633;SDS011;55625;47.072;22.192;2022-12-18T00:11:07;7.35;;;5.25;;
68633;SDS011;55625;47.072;22.192;2022-12-18T00:13:35;9.07;;;6.28;;
68633;SDS011;55625;47.072;22.192;2022-12-18T00:16:03;19.75;;;8.75;;
68633;SDS011;55625;47.072;22.192;2022-12-18T00:18:35;6.97;;;4.87;;
68633;SDS011;55625;47.072;22.192;2022-12-18T00:21:01;9.80;;;4.60;;
68633;SDS011;55625;47.072;22.192;2022-12-18T00:23:30;13.35;;;7.55;;
68633;SDS011;55625;47.072;22.192;2022-12-18T00:25:58;8.18;;;5.13;;
68633;SDS011;55625;47.072;22.192;2022-12-18T00:28:26;11.75;;;6.50;;
68633;SDS011;55625;47.072;22.192;2022-12-18T00:31:02;10.17;;;6.23;;
68633;SDS011;55625;47.072;22.192;2022-12-18T00:33:28;9.07;;;7.18;;
68633;SDS011;55625;47.072;22.192;2022-12-18T00:35:59;8.82;;;5.53;;
68633;SDS011;55625;47.072;22.192;2022-12-18T00:38:34;8.60;;;6.00;;
68633;SDS011;55625;47.072;22.192;2022-12-18T00:41:01;6.45;;;5.07;;
68633;SDS011;55625;47.072;22.192;2022-12-18T00:43:27;7.80;;;6.90;;
68633;SDS011;55625;47.072;22.192;2022-12-18T00:45:53;5.47;;;4.15;;
68633;SDS011;55625;47.072;22.192;2022-12-18T00:48:19;14.45;;;5.30;;
68633;SDS011;55625;47.072;22.192;2022-12-18T00:50:45;7.22;;;5.82;;
68633;SDS011;55625;47.072;22.192;2022-12-18T00:53:12;15.97;;;7.47;;
68633;SDS011;55625;47.072;22.192;2022-12-18T00:55:39;14.05;;;7.53;;
68633;SDS011;55625;47.072;22.192;2022-12-18T00:58:05;19.40;;;8.25;;
68633;SDS011;55625;47.072;22.192;2022-12-18T01:00:32;10.18;;;6.72;;
68633;SDS011;55625;47.072;22.192;2022-12-18T01:02:58;14.05;;;7.35;;
68633;SDS011;55625;47.072;22.192;2022-12-18T01:05:24;11.87;;;8.90;;
68633;SDS011;55625;47.072;22.192;2022-12-18T01:07:50;10.98;;;6.80;;
68633;SDS011;55625;47.072;22.192;2022-12-18T01:10:16;17.35;;;6.00;;
68633;SDS011;55625;47.072;22.192;2022-12-18T01:12:42;11.03;;;6.83;;
68633;SDS011;55625;47.072;22.192;2022-12-18T01:15:09;12.18;;;7.05;;
68633;SDS011;55625;47.072;22.192;2022-12-18T01:17:36;11.10;;;5.30;;
68633;SDS011;55625;47.072;22.192;2022-12-18T01:20:03;16.63;;;6.37;;
68633;SDS011;55625;47.072;22.192;2022-12-18T01:22:30;17.67;;;5.90;;
68633;SDS011;55625;47.072;22.192;2022-12-18T01:24:56;10.13;;;3.83;;
68633;SDS011;55625;47.072;22.192;2022-12-18T01:27:22;13.27;;;3.45;;
68633;SDS011;55625;47.072;22.192;2022-12-18T01:29:48;20.80;;;6.37;;
68633;SDS011;55625;47.072;22.192;2022-12-18T01:32:14;18.30;;;6.70;;
68633;SDS011;55625;47.072;22.192;2022-12-18T01:34:40;13.38;;;5.65;;
68633;SDS011;55625;47.072;22.192;2022-12-18T01:37:06;11.93;;;6.82;;
68633;SDS011;55625;47.072;22.192;2022-12-18T01:39:32;15.63;;;7.30;;
68633;SDS011;55625;47.072;22.192;2022-12-18T01:41:59;16.65;;;7.78;;
68633;SDS011;55625;47.072;22.192;2022-12-18T01:49:54;17.10;;;3.37;;
68633;SDS011;55625;47.072;22.192;2022-12-18T01:52:22;15.10;;;6.05;;
68633;SDS011;55625;47.072;22.192;2022-12-18T01:54:53;10.60;;;6.60;;
68633;SDS011;55625;47.072;22.192;2022-12-18T01:57:20;9.35;;;5.72;;
68633;SDS011;55625;47.072;22.192;2022-12-18T01:59:49;12.55;;;7.68;;
68633;SDS011;55625;47.072;22.192;2022-12-18T02:02:19;8.73;;;4.10;;
68633;SDS011;55625;47.072;22.192;2022-12-18T02:04:46;13.35;;;5.90;;
68633;SDS011;55625;47.072;22.192;2022-12-18T02:09:48;13.55;;;5.65;;
68633;SDS011;55625;47.072;22.192;2022-12-18T02:12:33;18.87;;;4.73;;
68633;SDS011;55625;47.072;22.192;2022-12-18T02:18:12;9.35;;;5.40;;
68633;SDS011;55625;47.072;22.192;2022-12-18T02:21:28;11.75;;;4.65;;
68633;SDS011;55625;47.072;22.192;2022-12-18T02:26:59;9.57;;;4.20;;
68633;SDS011;55625;47.072;22.192;2022-12-18T02:32:26;12.30;;;8.85;;
68633;SDS011;55625;47.072;22.192;2022-12-18T02:34:57;9.95;;;7.10;;
68633;SDS011;55625;47.072;22.192;2022-12-18T02:37:26;10.20;;;6.57;;
68633;SDS011;55625;47.072;22.192;2022-12-18T02:39:55;14.13;;;6.07;;
68633;SDS011;55625;47.072;22.192;2022-12-18T02:42:24;9.90;;;4.57;;
68633;SDS011;55625;47.072;22.192;2022-12-18T02:44:51;14.35;;;9.27;;
68633;SDS011;55625;47.072;22.192;2022-12-18T02:47:18;14.00;;;4.57;;
68633;SDS011;55625;47.072;22.192;2022-12-18T02:58:47;14.02;;;5.47;;
68633;SDS011;55625;47.072;22.192;2022-12-18T03:01:24;10.18;;;5.63;;
68633;SDS011;55625;47.072;22.192;2022-12-18T03:03:59;18.95;;;7.10;;
68633;SDS011;55625;47.072;22.192;2022-12-18T03:06:54;12.10;;;5.33;;
68633;SDS011;55625;47.072;22.192;2022-12-18T03:09:30;6.70;;;4.07;;
68633;SDS011;55625;47.072;22.192;2022-12-18T03:12:06;13.23;;;5.03;;
68633;SDS011;55625;47.072;22.192;2022-12-18T03:18:02;11.25;;;5.90;;
68633;SDS011;55625;47.072;22.192;2022-12-18T03:20:34;7.70;;;4.07;;
68633;SDS011;55625;47.072;22.192;2022-12-18T03:23:06;10.00;;;6.32;;
68633;SDS011;55625;47.072;22.192;2022-12-18T03:25:37;16.30;;;6.13;;
68633;SDS011;55625;47.072;22.192;2022-12-18T03:28:07;23.67;;;9.75;;
68633;SDS011;55625;47.072;22.192;2022-12-18T03:30:41;20.45;;;7.38;;
68633;SDS011;55625;47.072;22.192;2022-12-18T03:33:12;9.87;;;5.40;;
68633;SDS011;55625;47.072;22.192;2022-12-18T03:35:49;12.52;;;6.57;;
68633;SDS011;55625;47.072;22.192;2022-12-18T03:38:15;7.88;;;5.65;;
68633;SDS011;55625;47.072;22.192;2022-12-18T03:40:46;13.73;;;5.75;;
68633;SDS011;55625;47.072;22.192;2022-12-18T03:43:43;13.45;;;4.90;;
68633;SDS011;55625;47.072;22.192;2022-12-18T03:46:54;6.90;;;5.73;;
68633;SDS011;55625;47.072;22.192;2022-12-18T03:50:17;10.13;;;5.95;;
68633;SDS011;55625;47.072;22.192;2022-12-18T03:56:17;9.10;;;6.00;;
68633;SDS011;55625;47.072;22.192;2022-12-18T03:58:46;10.57;;;5.95;;
68633;SDS011;55625;47.072;22.192;2022-12-18T04:01:15;8.93;;;4.57;;
68633;SDS011;55625;47.072;22.192;2022-12-18T04:03:43;9.02;;;4.22;;
68633;SDS011;55625;47.072;22.192;2022-12-18T04:06:12;10.60;;;5.22;;
68633;SDS011;55625;47.072;22.192;2022-12-18T04:08:40;15.90;;;7.20;;
68633;SDS011;55625;47.072;22.192;2022-12-18T04:11:06;22.92;;;10.70;;
68633;SDS011;55625;47.072;22.192;2022-12-18T04:13:36;6.70;;;5.13;;
68633;SDS011;55625;47.072;22.192;2022-12-18T04:16:03;10.75;;;6.13;;
68633;SDS011;55625;47.072;22.192;2022-12-18T04:18:30;10.75;;;7.72;;
68633;SDS011;55625;47.072;22.192;2022-12-18T04:20:56;11.38;;;5.72;;
68633;SDS011;55625;47.072;22.192;2022-12-18T04:23:22;9.03;;;6.73;;
68633;SDS011;55625;47.072;22.192;2022-12-18T04:25:47;13.05;;;7.07;;
68633;SDS011;55625;47.072;22.192;2022-12-18T04:28:13;8.60;;;5.72;;
68633;SDS011;55625;47.072;22.192;2022-12-18T04:30:39;9.03;;;5.37;;
68633;SDS011;55625;47.072;22.192;2022-12-18T04:33:11;16.38;;;6.68;;
68633;SDS011;55625;47.072;22.192;2022-12-18T04:35:39;7.13;;;6.40;;
68633;SDS011;55625;47.072;22.192;2022-12-18T04:38:08;16.37;;;5.40;;
68633;SDS011;55625;47.072;22.192;2022-12-18T04:40:37;9.90;;;7.10;;
68633;SDS011;55625;47.072;22.192;2022-12-18T04:43:03;8.50;;;5.03;;
68633;SDS011;55625;47.072;22.192;2022-12-18T04:45:30;10.18;;;6.07;;
68633;SDS011;55625;47.072;22.192;2022-12-18T04:47:57;12.98;;;5.90;;
68633;SDS011;55625;47.072;22.192;2022-12-18T04:50:24;13.63;;;9.43;;
68633;SDS011;55625;47.072;22.192;2022-12-18T04:52:50;12.13;;;7.32;;
68633;SDS011;55625;47.072;22.192;2022-12-18T04:55:16;15.18;;;6.72;;
68633;SDS011;55625;47.072;22.192;2022-12-18T04:57:41;18.13;;;12.03;;
68633;SDS011;55625;47.072;22.192;2022-12-18T05:00:07;9.77;;;5.70;;
68633;SDS011;55625;47.072;22.192;2022-12-18T05:02:34;11.27;;;7.25;;
68633;SDS011;55625;47.072;22.192;2022-12-18T05:05:00;17.70;;;5.50;;
68633;SDS011;55625;47.072;22.192;2022-12-18T05:07:26;8.83;;;5.73;;
68633;SDS011;55625;47.072;22.192;2022-12-18T05:09:51;10.32;;;7.47;;
68633;SDS011;55625;47.072;22.192;2022-12-18T05:12:17;13.57;;;7.30;;
68633;SDS011;55625;47.072;22.192;2022-12-18T05:14:43;10.35;;;6.07;;
68633;SDS011;55625;47.072;22.192;2022-12-18T05:17:09;11.90;;;8.57;;
68633;SDS011;55625;47.072;22.192;2022-12-18T05:19:35;13.50;;;6.07;;
68633;SDS011;55625;47.072;22.192;2022-12-18T05:22:04;10.95;;;6.47;;
68633;SDS011;55625;47.072;22.192;2022-12-18T05:24:30;12.55;;;7.53;;
68633;SDS011;55625;47.072;22.192;2022-12-18T05:26:56;7.25;;;5.10;;
68633;SDS011;55625;47.072;22.192;2022-12-18T05:29:21;11.67;;;5.27;;
68633;SDS011;55625;47.072;22.192;2022-12-18T05:31:47;19.33;;;6.88;;
68633;SDS011;55625;47.072;22.192;2022-12-18T05:34:13;10.45;;;4.53;;
68633;SDS011;55625;47.072;22.192;2022-12-18T05:36:39;5.17;;;4.37;;
68633;SDS011;55625;47.072;22.192;2022-12-18T05:39:05;7.05;;;4.45;;
68633;SDS011;55625;47.072;22.192;2022-12-18T05:41:31;11.60;;;4.57;;
68633;SDS011;55625;47.072;22.192;2022-12-18T05:43:57;9.48;;;6.28;;
68633;SDS011;55625;47.072;22.192;2022-12-18T05:46:24;7.90;;;5.77;;
68633;SDS011;55625;47.072;22.192;2022-12-18T05:48:50;9.68;;;6.28;;
68633;SDS011;55625;47.072;22.192;2022-12-18T05:51:17;10.65;;;5.82;;
68633;SDS011;55625;47.072;22.192;2022-12-18T05:53:46;13.75;;;6.68;;
68633;SDS011;55625;47.072;22.192;2022-12-18T05:56:14;7.72;;;5.97;;
68633;SDS011;55625;47.072;22.192;2022-12-18T05:58:43;12.97;;;8.17;;
68633;SDS011;55625;47.072;22.192;2022-12-18T06:01:11;13.25;;;7.78;;
68633;SDS011;55625;47.072;22.192;2022-12-18T06:03:43;18.13;;;10.27;;
68633;SDS011;55625;47.072;22.192;2022-12-18T06:06:12;21.13;;;8.60;;
68633;SDS011;55625;47.072;22.192;2022-12-18T06:08:44;11.52;;;7.18;;
68633;SDS011;55625;47.072;22.192;2022-12-18T06:11:11;19.10;;;9.03;;
68633;SDS011;55625;47.072;22.192;2022-12-18T06:13:38;14.40;;;8.60;;
68633;SDS011;55625;47.072;22.192;2022-12-18T06:16:04;12.32;;;7.95;;
68633;SDS011;55625;47.072;22.192;2022-12-18T06:18:31;9.88;;;7.07;;
68633;SDS011;55625;47.072;22.192;2022-12-18T06:20:57;19.38;;;8.18;;
68633;SDS011;55625;47.072;22.192;2022-12-18T06:23:24;24.70;;;8.83;;
68633;SDS011;55625;47.072;22.192;2022-12-18T06:25:51;10.60;;;6.28;;
68633;SDS011;55625;47.072;22.192;2022-12-18T06:28:17;8.38;;;6.13;;
68633;SDS011;55625;47.072;22.192;2022-12-18T06:30:44;7.25;;;6.00;;
68633;SDS011;55625;47.072;22.192;2022-12-18T06:33:13;11.77;;;8.23;;
68633;SDS011;55625;47.072;22.192;2022-12-18T06:35:41;10.53;;;6.57;;
68633;SDS011;55625;47.072;22.192;2022-12-18T06:38:07;21.55;;;8.20;;
68633;SDS011;55625;47.072;22.192;2022-12-18T06:40:33;12.32;;;7.03;;
68633;SDS011;55625;47.072;22.192;2022-12-18T06:42:59;20.30;;;9.48;;
68633;SDS011;55625;47.072;22.192;2022-12-18T06:45:25;12.73;;;5.77;;
68633;SDS011;55625;47.072;22.192;2022-12-18T06:47:50;13.00;;;7.25;;
68633;SDS011;55625;47.072;22.192;2022-12-18T06:50:16;15.67;;;9.93;;
68633;SDS011;55625;47.072;22.192;2022-12-18T06:52:42;19.50;;;6.68;;
68633;SDS011;55625;47.072;22.192;2022-12-18T06:55:09;17.25;;;12.13;;
68633;SDS011;55625;47.072;22.192;2022-12-18T06:57:36;28.88;;;15.75;;
68633;SDS011;55625;47.072;22.192;2022-12-18T07:00:03;18.08;;;14.55;;
68633;SDS011;55625;47.072;22.192;2022-12-18T07:02:31;12.73;;;11.47;;
68633;SDS011;55625;47.072;22.192;2022-12-18T07:04:57;20.70;;;12.90;;
68633;SDS011;55625;47.072;22.192;2022-12-18T07:07:24;18.67;;;13.20;;
68633;SDS011;55625;47.072;22.192;2022-12-18T07:09:50;33.28;;;15.02;;
68633;SDS011;55625;47.072;22.192;2022-12-18T07:12:16;26.35;;;16.38;;
68633;SDS011;55625;47.072;22.192;2022-12-18T07:14:42;24.20;;;20.63;;
68633;SDS011;55625;47.072;22.192;2022-12-18T07:17:08;25.58;;;11.48;;
68633;SDS011;55625;47.072;22.192;2022-12-18T07:19:34;23.10;;;15.15;;
68633;SDS011;55625;47.072;22.192;2022-12-18T07:22:00;27.20;;;9.60;;
68633;SDS011;55625;47.072;22.192;2022-12-18T07:24:26;31.92;;;16.55;;
68633;SDS011;55625;47.072;22.192;2022-12-18T07:26:52;24.90;;;14.55;;
68633;SDS011;55625;47.072;22.192;2022-12-18T07:29:18;14.43;;;9.98;;
68633;SDS011;55625;47.072;22.192;2022-12-18T07:31:44;12.07;;;7.83;;
68633;SDS011;55625;47.072;22.192;2022-12-18T07:34:11;16.50;;;9.50;;
68633;SDS011;55625;47.072;22.192;2022-12-18T07:36:38;9.73;;;7.65;;
68633;SDS011;55625;47.072;22.192;2022-12-18T07:39:04;14.60;;;7.35;;
68633;SDS011;55625;47.072;22.192;2022-12-18T07:41:29;10.33;;;7.03;;
68633;SDS011;55625;47.072;22.192;2022-12-18T07:43:55;9.73;;;6.38;;
68633;SDS011;55625;47.072;22.192;2022-12-18T07:46:22;10.50;;;7.38;;
68633;SDS011;55625;47.072;22.192;2022-12-18T07:48:48;10.93;;;7.90;;
68633;SDS011;55625;47.072;22.192;2022-12-18T07:51:14;13.03;;;8.47;;
68633;SDS011;55625;47.072;22.192;2022-12-18T07:53:40;9.05;;;6.65;;
68633;SDS011;55625;47.072;22.192;2022-12-18T07:56:07;10.38;;;4.50;;
68633;SDS011;55625;47.072;22.192;2022-12-18T07:58:35;15.83;;;7.90;;
68633;SDS011;55625;47.072;22.192;2022-12-18T08:01:02;16.30;;;8.73;;
68633;SDS011;55625;47.072;22.192;2022-12-18T08:03:29;13.93;;;6.40;;
68633;SDS011;55625;47.072;22.192;2022-12-18T08:05:58;15.45;;;7.60;;
68633;SDS011;55625;47.072;22.192;2022-12-18T08:08:32;10.30;;;6.68;;
68633;SDS011;55625;47.072;22.192;2022-12-18T08:10:59;7.93;;;6.57;;
68633;SDS011;55625;47.072;22.192;2022-12-18T08:13:25;10.30;;;5.80;;
68633;SDS011;55625;47.072;22.192;2022-12-18T08:15:57;15.93;;;6.35;;
68633;SDS011;55625;47.072;22.192;2022-12-18T08:18:25;10.52;;;7.45;;
68633;SDS011;55625;47.072;22.192;2022-12-18T08:20:52;14.10;;;4.78;;
68633;SDS011;55625;47.072;22.192;2022-12-18T08:23:18;15.37;;;7.80;;
68633;SDS011;55625;47.072;22.192;2022-12-18T08:25:44;9.95;;;5.95;;
68633;SDS011;55625;47.072;22.192;2022-12-18T08:28:10;12.38;;;7.65;;
68633;SDS011;55625;47.072;22.192;2022-12-18T08:30:36;12.55;;;8.07;;
68633;SDS011;55625;47.072;22.192;2022-12-18T08:33:02;14.90;;;8.50;;
68633;SDS011;55625;47.072;22.192;2022-12-18T08:35:28;18.73;;;7.70;;
68633;SDS011;55625;47.072;22.192;2022-12-18T08:37:54;11.93;;;6.07;;
68633;SDS011;55625;47.072;22.192;2022-12-18T08:40:20;10.47;;;6.17;;
68633;SDS011;55625;47.072;22.192;2022-12-18T08:42:46;9.48;;;5.85;;
68633;SDS011;55625;47.072;22.192;2022-12-18T08:45:30;9.18;;;7.60;;
68633;SDS011;55625;47.072;22.192;2022-12-18T08:47:56;22.40;;;7.80;;
68633;SDS011;55625;47.072;22.192;2022-12-18T08:50:22;16.05;;;8.77;;
68633;SDS011;55625;47.072;22.192;2022-12-18T08:52:48;13.57;;;8.60;;
68633;SDS011;55625;47.072;22.192;2022-12-18T08:55:13;16.80;;;9.27;;
68633;SDS011;55625;47.072;22.192;2022-12-18T08:57:39;13.32;;;7.07;;
68633;SDS011;55625;47.072;22.192;2022-12-18T09:00:05;10.73;;;6.03;;
68633;SDS011;55625;47.072;22.192;2022-12-18T09:02:32;7.50;;;5.75;;
68633;SDS011;55625;47.072;22.192;2022-12-18T09:04:58;13.88;;;5.90;;
68633;SDS011;55625;47.072;22.192;2022-12-18T09:07:24;10.83;;;6.27;;
68633;SDS011;55625;47.072;22.192;2022-12-18T09:09:50;8.40;;;6.18;;
68633;SDS011;55625;47.072;22.192;2022-12-18T09:12:16;8.43;;;6.78;;
68633;SDS011;55625;47.072;22.192;2022-12-18T09:14:42;13.77;;;4.43;;
68633;SDS011;55625;47.072;22.192;2022-12-18T09:17:07;10.07;;;5.65;;
68633;SDS011;55625;47.072;22.192;2022-12-18T09:19:34;19.20;;;6.32;;
68633;SDS011;55625;47.072;22.192;2022-12-18T09:22:00;24.77;;;6.63;;
68633;SDS011;55625;47.072;22.192;2022-12-18T09:24:25;10.70;;;4.80;;
68633;SDS011;55625;47.072;22.192;2022-12-18T09:26:54;17.98;;;9.35;;
68633;SDS011;55625;47.072;22.192;2022-12-18T09:29:20;17.33;;;8.25;;
68633;SDS011;55625;47.072;22.192;2022-12-18T09:31:46;12.90;;;8.13;;
68633;SDS011;55625;47.072;22.192;2022-12-18T09:34:12;15.60;;;6.10;;
68633;SDS011;55625;47.072;22.192;2022-12-18T09:36:38;16.63;;;6.63;;
68633;SDS011;55625;47.072;22.192;2022-12-18T09:39:04;8.40;;;6.63;;
68633;SDS011;55625;47.072;22.192;2022-12-18T09:41:39;15.13;;;5.70;;
68633;SDS011;55625;47.072;22.192;2022-12-18T09:44:28;12.43;;;6.40;;
68633;SDS011;55625;47.072;22.192;2022-12-18T09:49:34;15.30;;;7.03;;
68633;SDS011;55625;47.072;22.192;2022-12-18T09:52:17;9.45;;;6.07;;
68633;SDS011;55625;47.072;22.192;2022-12-18T09:57:48;12.48;;;6.85;;
68633;SDS011;55625;47.072;22.192;2022-12-18T10:00:21;13.02;;;7.55;;
68633;SDS011;55625;47.072;22.192;2022-12-18T10:02:50;21.40;;;7.75;;
68633;SDS011;55625;47.072;22.192;2022-12-18T10:08:18;16.70;;;7.10;;
68633;SDS011;55625;47.072;22.192;2022-12-18T10:10:53;7.45;;;5.75;;
68633;SDS011;55625;47.072;22.192;2022-12-18T10:13:31;5.28;;;4.03;;
68633;SDS011;55625;47.072;22.192;2022-12-18T10:16:11;14.30;;;7.03;;
68633;SDS011;55625;47.072;22.192;2022-12-18T10:18:57;8.77;;;5.60;;
68633;SDS011;55625;47.072;22.192;2022-12-18T10:27:11;15.68;;;8.18;;
68633;SDS011;55625;47.072;22.192;2022-12-18T10:29:45;8.30;;;4.70;;
68633;SDS011;55625;47.072;22.192;2022-12-18T10:32:21;14.73;;;5.93;;
68633;SDS011;55625;47.072;22.192;2022-12-18T10:34:54;8.93;;;4.30;;
68633;SDS011;55625;47.072;22.192;2022-12-18T10:37:25;15.65;;;7.45;;
68633;SDS011;55625;47.072;22.192;2022-12-18T10:40:13;22.95;;;7.55;;
68633;SDS011;55625;47.072;22.192;2022-12-18T10:42:41;18.60;;;5.15;;
68633;SDS011;55625;47.072;22.192;2022-12-18T10:45:15;17.58;;;6.15;;
68633;SDS011;55625;47.072;22.192;2022-12-18T10:47:45;10.40;;;5.53;;
68633;SDS011;55625;47.072;22.192;2022-12-18T10:50:35;8.00;;;4.72;;
68633;SDS011;55625;47.072;22.192;2022-12-18T10:53:03;12.38;;;7.63;;
68633;SDS011;55625;47.072;22.192;2022-12-18T10:55:31;11.30;;;6.40;;
68633;SDS011;55625;47.072;22.192;2022-12-18T11:01:13;17.17;;;5.10;;
68633;SDS011;55625;47.072;22.192;2022-12-18T11:03:45;11.30;;;6.28;;
68633;SDS011;55625;47.072;22.192;2022-12-18T11:06:25;17.90;;;7.35;;
68633;SDS011;55625;47.072;22.192;2022-12-18T11:11:42;13.57;;;8.18;;
68633;SDS011;55625;47.072;22.192;2022-12-18T11:14:26;10.70;;;7.03;;
68633;SDS011;55625;47.072;22.192;2022-12-18T11:16:55;9.77;;;6.35;;
68633;SDS011;55625;47.072;22.192;2022-12-18T11:21:59;9.52;;;5.70;;
68633;SDS011;55625;47.072;22.192;2022-12-18T11:24:35;10.43;;;6.72;;
68633;SDS011;55625;47.072;22.192;2022-12-18T11:27:05;11.00;;;4.03;;
68633;SDS011;55625;47.072;22.192;2022-12-18T11:29:40;17.33;;;8.85;;
68633;SDS011;55625;47.072;22.192;2022-12-18T11:35:01;12.00;;;6.38;;
68633;SDS011;55625;47.072;22.192;2022-12-18T11:37:32;11.35;;;7.30;;
68633;SDS011;55625;47.072;22.192;2022-12-18T11:40:00;12.67;;;4.37;;
68633;SDS011;55625;47.072;22.192;2022-12-18T11:45:43;14.70;;;5.57;;
68633;SDS011;55625;47.072;22.192;2022-12-18T11:48:27;9.07;;;5.80;;
68633;SDS011;55625;47.072;22.192;2022-12-18T11:50:59;10.30;;;7.88;;
68633;SDS011;55625;47.072;22.192;2022-12-18T11:53:28;13.93;;;5.30;;
68633;SDS011;55625;47.072;22.192;2022-12-18T12:10:05;10.25;;;6.43;;
68633;SDS011;55625;47.072;22.192;2022-12-18T12:12:55;8.30;;;3.45;;
68633;SDS011;55625;47.072;22.192;2022-12-18T12:21:43;13.90;;;4.77;;
68633;SDS011;55625;47.072;22.192;2022-12-18T12:40:34;11.70;;;6.03;;
68633;SDS011;55625;47.072;22.192;2022-12-18T12:43:38;14.88;;;7.45;;
68633;SDS011;55625;47.072;22.192;2022-12-18T12:46:15;18.55;;;11.40;;
68633;SDS011;55625;47.072;22.192;2022-12-18T12:48:46;15.77;;;9.40;;
68633;SDS011;55625;47.072;22.192;2022-12-18T12:51:25;21.23;;;9.02;;
68633;SDS011;55625;47.072;22.192;2022-12-18T12:53:56;17.65;;;9.43;;
68633;SDS011;55625;47.072;22.192;2022-12-18T12:56:25;13.20;;;8.80;;
68633;SDS011;55625;47.072;22.192;2022-12-18T13:02:51;13.50;;;4.07;;
68633;SDS011;55625;47.072;22.192;2022-12-18T13:08:09;10.55;;;6.35;;
68633;SDS011;55625;47.072;22.192;2022-12-18T13:10:46;13.00;;;7.20;;
68633;SDS011;55625;47.072;22.192;2022-12-18T13:13:13;19.42;;;4.68;;
68633;SDS011;55625;47.072;22.192;2022-12-18T13:18:30;15.43;;;8.05;;
68633;SDS011;55625;47.072;22.192;2022-12-18T13:25:51;24.65;;;13.32;;
68633;SDS011;55625;47.072;22.192;2022-12-18T13:36:45;20.63;;;9.30;;
68633;SDS011;55625;47.072;22.192;2022-12-18T13:41:44;10.43;;;6.43;;
68633;SDS011;55625;47.072;22.192;2022-12-18T13:44:24;14.63;;;8.35;;
68633;SDS011;55625;47.072;22.192;2022-12-18T13:47:05;21.03;;;7.80;;
68633;SDS011;55625;47.072;22.192;2022-12-18T13:50:00;10.10;;;5.82;;
68633;SDS011;55625;47.072;22.192;2022-12-18T13:52:47;30.40;;;10.48;;
68633;SDS011;55625;47.072;22.192;2022-12-18T13:55:15;21.27;;;10.98;;
68633;SDS011;55625;47.072;22.192;2022-12-18T13:57:44;21.55;;;13.23;;
68633;SDS011;55625;47.072;22.192;2022-12-18T14:00:29;14.43;;;6.40;;
68633;SDS011;55625;47.072;22.192;2022-12-18T14:02:57;14.82;;;6.78;;
68633;SDS011;55625;47.072;22.192;2022-12-18T14:05:25;13.18;;;8.23;;
68633;SDS011;55625;47.072;22.192;2022-12-18T14:08:01;14.75;;;5.07;;
68633;SDS011;55625;47.072;22.192;2022-12-18T14:10:33;8.23;;;4.45;;
68633;SDS011;55625;47.072;22.192;2022-12-18T14:13:03;14.33;;;7.50;;
68633;SDS011;55625;47.072;22.192;2022-12-18T14:15:39;11.07;;;7.10;;
68633;SDS011;55625;47.072;22.192;2022-12-18T14:20:59;8.88;;;3.85;;
68633;SDS011;55625;47.072;22.192;2022-12-18T14:23:40;15.88;;;9.18;;
68633;SDS011;55625;47.072;22.192;2022-12-18T14:26:26;17.37;;;8.03;;
68633;SDS011;55625;47.072;22.192;2022-12-18T14:28:58;11.98;;;6.93;;
68633;SDS011;55625;47.072;22.192;2022-12-18T14:31:42;7.53;;;3.85;;
68633;SDS011;55625;47.072;22.192;2022-12-18T14:34:14;11.45;;;7.35;;
68633;SDS011;55625;47.072;22.192;2022-12-18T14:36:41;21.40;;;11.10;;
68633;SDS011;55625;47.072;22.192;2022-12-18T14:39:18;22.88;;;10.27;;
68633;SDS011;55625;47.072;22.192;2022-12-18T14:41:44;19.02;;;8.68;;
68633;SDS011;55625;47.072;22.192;2022-12-18T14:44:11;26.13;;;13.90;;
68633;SDS011;55625;47.072;22.192;2022-12-18T14:46:38;29.00;;;12.52;;
68633;SDS011;55625;47.072;22.192;2022-12-18T14:52:04;20.38;;;10.07;;
68633;SDS011;55625;47.072;22.192;2022-12-18T14:54:31;27.65;;;11.65;;
68633;SDS011;55625;47.072;22.192;2022-12-18T14:57:04;16.70;;;9.30;;
68633;SDS011;55625;47.072;22.192;2022-12-18T14:59:46;15.07;;;9.63;;
68633;SDS011;55625;47.072;22.192;2022-12-18T15:10:16;17.95;;;10.05;;
68633;SDS011;55625;47.072;22.192;2022-12-18T15:20:39;18.73;;;12.50;;
68633;SDS011;55625;47.072;22.192;2022-12-18T15:23:17;12.68;;;6.53;;
68633;SDS011;55625;47.072;22.192;2022-12-18T15:25:59;14.63;;;7.28;;
68633;SDS011;55625;47.072;22.192;2022-12-18T15:28:46;24.40;;;9.57;;
68633;SDS011;55625;47.072;22.192;2022-12-18T15:34:10;20.80;;;6.93;;
68633;SDS011;55625;47.072;22.192;2022-12-18T15:36:49;10.10;;;7.38;;
68633;SDS011;55625;47.072;22.192;2022-12-18T15:39:16;22.85;;;10.00;;
68633;SDS011;55625;47.072;22.192;2022-12-18T15:41:42;14.57;;;11.67;;
68633;SDS011;55625;47.072;22.192;2022-12-18T15:44:27;26.10;;;11.07;;
68633;SDS011;55625;47.072;22.192;2022-12-18T15:46:53;13.20;;;8.30;;
68633;SDS011;55625;47.072;22.192;2022-12-18T15:49:19;22.10;;;10.80;;
68633;SDS011;55625;47.072;22.192;2022-12-18T15:51:45;24.08;;;10.90;;
68633;SDS011;55625;47.072;22.192;2022-12-18T15:54:21;23.00;;;13.30;;
68633;SDS011;55625;47.072;22.192;2022-12-18T15:57:13;16.27;;;13.05;;
68633;SDS011;55625;47.072;22.192;2022-12-18T15:59:48;33.92;;;16.90;;
68633;SDS011;55625;47.072;22.192;2022-12-18T16:02:19;28.83;;;13.00;;
68633;SDS011;55625;47.072;22.192;2022-12-18T16:04:47;25.90;;;16.60;;
68633;SDS011;55625;47.072;22.192;2022-12-18T16:07:14;24.98;;;13.35;;
68633;SDS011;55625;47.072;22.192;2022-12-18T16:09:40;22.10;;;13.60;;
68633;SDS011;55625;47.072;22.192;2022-12-18T16:12:08;49.42;;;24.92;;
68633;SDS011;55625;47.072;22.192;2022-12-18T16:14:47;51.13;;;21.70;;
68633;SDS011;55625;47.072;22.192;2022-12-18T16:17:13;32.25;;;17.17;;
68633;SDS011;55625;47.072;22.192;2022-12-18T16:19:40;48.65;;;22.23;;
68633;SDS011;55625;47.072;22.192;2022-12-18T16:22:19;41.15;;;30.25;;
68633;SDS011;55625;47.072;22.192;2022-12-18T16:24:48;39.08;;;25.25;;
68633;SDS011;55625;47.072;22.192;2022-12-18T16:27:16;40.93;;;23.57;;
68633;SDS011;55625;47.072;22.192;2022-12-18T16:29:42;29.88;;;17.63;;
68633;SDS011;55625;47.072;22.192;2022-12-18T16:32:08;26.33;;;14.52;;
68633;SDS011;55625;47.072;22.192;2022-12-18T16:34:40;24.48;;;16.33;;
68633;SDS011;55625;47.072;22.192;2022-12-18T16:37:08;38.93;;;16.33;;
68633;SDS011;55625;47.072;22.192;2022-12-18T16:39:36;27.02;;;16.10;;
68633;SDS011;55625;47.072;22.192;2022-12-18T16:42:20;38.08;;;19.20;;
68633;SDS011;55625;47.072;22.192;2022-12-18T16:44:47;39.40;;;22.75;;
68633;SDS011;55625;47.072;22.192;2022-12-18T16:47:14;34.65;;;20.05;;
68633;SDS011;55625;47.072;22.192;2022-12-18T16:49:41;33.73;;;19.13;;
68633;SDS011;55625;47.072;22.192;2022-12-18T16:52:09;21.90;;;11.13;;
68633;SDS011;55625;47.072;22.192;2022-12-18T16:54:36;23.05;;;9.80;;
68633;SDS011;55625;47.072;22.192;2022-12-18T16:57:02;24.17;;;15.40;;
68633;SDS011;55625;47.072;22.192;2022-12-18T16:59:31;20.95;;;11.43;;
68633;SDS011;55625;47.072;22.192;2022-12-18T17:01:57;28.17;;;14.40;;
68633;SDS011;55625;47.072;22.192;2022-12-18T17:04:23;28.80;;;13.68;;
68633;SDS011;55625;47.072;22.192;2022-12-18T17:06:49;26.42;;;12.18;;